createdAt,value
2024-03-02T00:00:55.822Z,22.63
2024-03-02T00:03:38.850Z,18.10
2024-03-02T00:06:22.432Z,18.00
2024-03-02T00:09:06.570Z,20.95
2024-03-02T00:11:49.278Z,18.52
2024-03-02T00:14:32.033Z,20.63
2024-03-02T00:17:26.744Z,20.65
2024-03-02T00:20:11.601Z,22.63
2024-03-02T00:22:57.401Z,23.80
2024-03-02T00:25:43.053Z,18.30
2024-03-02T00:28:26.780Z,20.67
2024-03-02T00:31:09.841Z,22.02
2024-03-02T00:33:52.794Z,25.45
2024-03-02T00:36:35.551Z,26.30
2024-03-02T00:39:19.051Z,24.00
2024-03-02T00:42:03.385Z,24.30
2024-03-02T00:44:48.238Z,25.15
2024-03-02T00:47:30.972Z,24.95
2024-03-02T00:50:20.773Z,23.67
2024-03-02T00:53:12.146Z,26.40
2024-03-02T00:55:55.211Z,28.80
2024-03-02T00:58:39.202Z,22.05
2024-03-02T01:01:22.291Z,22.17
2024-03-02T01:04:05.259Z,24.83
2024-03-02T01:06:48.122Z,28.77
2024-03-02T01:09:30.910Z,26.23
2024-03-02T01:12:13.787Z,26.80
2024-03-02T01:14:57.886Z,27.08
2024-03-02T01:17:40.610Z,27.40
2024-03-02T01:20:23.710Z,25.65
2024-03-02T01:23:06.421Z,28.45
2024-03-02T01:25:49.303Z,25.05
2024-03-02T01:28:31.947Z,26.75
2024-03-02T01:31:16.043Z,26.35
2024-03-02T01:33:58.812Z,27.42
2024-03-02T01:36:41.530Z,26.92
2024-03-02T01:39:24.284Z,27.90
2024-03-02T01:42:07.143Z,25.08
2024-03-02T01:44:49.944Z,23.35
2024-03-02T01:47:34.593Z,23.70
2024-03-02T01:50:17.610Z,23.25
2024-03-02T01:53:00.654Z,23.50
2024-03-02T01:55:44.256Z,23.42
2024-03-02T01:58:27.140Z,27.42
2024-03-02T02:01:11.363Z,25.95
2024-03-02T02:03:55.662Z,26.42
2024-03-02T02:06:38.368Z,23.60
2024-03-02T02:09:21.216Z,24.20
2024-03-02T02:12:05.907Z,25.88
2024-03-02T02:14:51.596Z,22.60
2024-03-02T02:17:34.356Z,23.13
2024-03-02T02:20:20.009Z,25.33
2024-03-02T02:23:05.446Z,23.80
2024-03-02T02:25:48.175Z,27.05
2024-03-02T02:28:30.832Z,24.70
2024-03-02T02:31:13.583Z,24.35
2024-03-02T02:33:56.264Z,26.73
2024-03-02T02:36:39.759Z,24.38
2024-03-02T02:39:24.511Z,26.98
2024-03-02T02:42:08.268Z,24.33
2024-03-02T02:44:51.071Z,22.30
2024-03-02T02:47:36.118Z,25.00
2024-03-02T02:50:18.916Z,25.15
2024-03-02T02:53:01.675Z,25.75
2024-03-02T02:55:45.742Z,25.35
2024-03-02T02:58:28.410Z,23.80
2024-03-02T03:01:11.347Z,25.95
2024-03-02T03:03:54.265Z,22.63
2024-03-02T03:06:37.110Z,23.75
2024-03-02T03:09:19.978Z,24.73
2024-03-02T03:12:04.107Z,22.33
2024-03-02T03:14:46.830Z,24.33
2024-03-02T03:17:29.785Z,21.02
2024-03-02T03:20:12.604Z,24.98
2024-03-02T03:22:55.518Z,22.23
2024-03-02T03:25:38.334Z,22.70
2024-03-02T03:28:22.443Z,22.75
2024-03-02T03:31:05.394Z,25.83
2024-03-02T03:33:48.239Z,26.17
2024-03-02T03:36:30.972Z,23.48
2024-03-02T03:39:13.723Z,23.08
2024-03-02T03:41:56.623Z,22.85
2024-03-02T03:44:42.743Z,24.15
2024-03-02T03:47:25.766Z,24.00
2024-03-02T03:50:09.192Z,23.75
2024-03-02T03:52:52.027Z,25.42
2024-03-02T03:55:37.199Z,23.40
2024-03-02T03:58:23.082Z,22.80
2024-03-02T04:01:07.603Z,25.38
2024-03-02T04:03:50.369Z,25.58
2024-03-02T04:06:33.290Z,24.58
2024-03-02T04:09:16.224Z,22.55
2024-03-02T04:11:59.065Z,25.00
2024-03-02T04:14:43.679Z,20.55
2024-03-02T04:17:27.887Z,21.45
2024-03-02T04:20:11.105Z,23.25
2024-03-02T04:22:53.818Z,21.83
2024-03-02T04:25:37.286Z,21.38
2024-03-02T04:28:19.968Z,24.10
2024-03-02T04:31:02.731Z,22.40
2024-03-02T04:33:46.864Z,23.20
2024-03-02T04:36:29.660Z,22.23
2024-03-02T04:39:12.355Z,18.80
2024-03-02T04:41:55.021Z,21.50
2024-03-02T04:44:39.004Z,19.05
2024-03-02T04:47:21.751Z,20.98
2024-03-02T04:50:08.865Z,19.58
2024-03-02T04:52:51.594Z,21.02
2024-03-02T04:55:51.610Z,23.83
2024-03-02T04:58:34.489Z,19.13
2024-03-02T05:01:18.624Z,21.80
2024-03-02T05:04:01.509Z,21.42
2024-03-02T05:06:45.689Z,21.00
2024-03-02T05:09:28.591Z,24.02
2024-03-02T05:12:30.350Z,21.15
2024-03-02T05:15:13.650Z,21.80
2024-03-02T05:17:58.157Z,23.00
2024-03-02T05:20:41.109Z,23.65
2024-03-02T05:23:25.657Z,20.73
2024-03-02T05:26:09.194Z,18.98
2024-03-02T05:28:51.908Z,23.50
2024-03-02T05:31:34.698Z,20.08
2024-03-02T05:34:17.635Z,22.00
2024-03-02T05:37:00.388Z,21.92
2024-03-02T05:39:45.180Z,22.23
2024-03-02T05:42:28.138Z,20.40
2024-03-02T05:45:10.925Z,20.10
2024-03-02T05:47:53.597Z,23.88
2024-03-02T05:50:36.311Z,20.95
2024-03-02T05:53:18.976Z,19.88
2024-03-02T05:56:05.377Z,21.75
2024-03-02T05:58:58.816Z,21.25
2024-03-02T06:01:41.629Z,20.90
2024-03-02T06:04:24.307Z,19.92
2024-03-02T06:07:07.632Z,19.58
2024-03-02T06:09:52.501Z,22.48
2024-03-02T06:12:36.849Z,19.30
2024-03-02T06:15:19.956Z,21.98
2024-03-02T06:18:02.744Z,20.83
2024-03-02T06:20:45.523Z,20.55
2024-03-02T06:23:28.167Z,18.55
2024-03-02T06:26:10.802Z,20.98
2024-03-02T06:28:54.874Z,20.73
2024-03-02T06:31:37.606Z,19.35
2024-03-02T06:34:20.271Z,17.58
2024-03-02T06:37:03.536Z,21.48
2024-03-02T06:39:46.371Z,18.20
2024-03-02T06:42:34.098Z,18.92
2024-03-02T06:45:18.463Z,21.58
2024-03-02T06:48:01.256Z,21.05
2024-03-02T06:50:44.038Z,21.60
2024-03-02T06:53:26.768Z,19.38
2024-03-02T06:56:10.513Z,21.58
2024-03-02T06:58:53.275Z,20.75
2024-03-02T07:01:37.388Z,18.75
2024-03-02T07:04:20.057Z,20.45
2024-03-02T07:07:02.833Z,19.98
2024-03-02T07:09:45.740Z,19.85
2024-03-02T07:12:28.507Z,21.20
2024-03-02T07:15:30.266Z,20.30
2024-03-02T07:18:14.561Z,21.52
2024-03-02T07:20:59.481Z,21.10
2024-03-02T07:23:42.240Z,20.65
2024-03-02T07:29:10.668Z,21.85
2024-03-02T07:31:53.325Z,18.85
2024-03-02T07:34:37.576Z,21.80
2024-03-02T07:37:21.381Z,20.83
2024-03-02T07:40:10.513Z,23.45
2024-03-02T07:42:53.365Z,20.77
2024-03-02T07:45:37.106Z,23.58
2024-03-02T07:48:19.917Z,18.25
2024-03-02T07:51:04.261Z,22.98
2024-03-02T07:53:48.119Z,19.15
2024-03-02T07:56:30.978Z,20.35
2024-03-02T07:59:13.694Z,18.00
2024-03-02T08:01:57.342Z,20.27
2024-03-02T08:04:40.195Z,18.40
2024-03-02T08:07:24.378Z,22.55
2024-03-02T08:10:07.837Z,17.77
2024-03-02T08:12:50.627Z,25.27
2024-03-02T08:15:33.410Z,19.98
2024-03-02T08:18:16.217Z,22.02
2024-03-02T08:20:58.962Z,17.77
2024-03-02T08:23:44.903Z,24.85
2024-03-02T08:26:30.044Z,20.58
2024-03-02T08:29:13.164Z,22.15
2024-03-02T08:31:55.865Z,21.80
2024-03-02T08:34:38.560Z,20.77
2024-03-02T08:37:21.285Z,19.00
2024-03-02T08:40:08.368Z,20.27
2024-03-02T08:42:51.115Z,21.38
2024-03-02T08:45:33.869Z,19.75
2024-03-02T08:48:17.017Z,19.58
2024-03-02T08:50:59.669Z,21.08
2024-03-02T08:53:42.339Z,20.08
2024-03-02T08:56:26.390Z,20.52
2024-03-02T08:59:09.109Z,19.42
2024-03-02T09:01:51.860Z,21.02
2024-03-02T09:04:35.351Z,19.83
2024-03-02T09:07:18.425Z,20.08
2024-03-02T09:10:01.212Z,17.52
2024-03-02T09:12:45.368Z,21.40
2024-03-02T09:15:28.111Z,18.10
2024-03-02T09:18:11.186Z,20.52
2024-03-02T09:20:53.927Z,18.70
2024-03-02T09:23:36.653Z,21.73
2024-03-02T09:26:20.846Z,17.10
2024-03-02T09:29:05.410Z,19.25
2024-03-02T09:31:48.122Z,17.95
2024-03-02T09:34:30.920Z,19.35
2024-03-02T09:37:13.650Z,19.98
2024-03-02T09:39:56.592Z,18.27
2024-03-02T09:42:39.585Z,19.88
2024-03-02T09:45:25.573Z,19.50
2024-03-02T09:48:08.847Z,17.55
2024-03-02T09:50:51.607Z,17.52
2024-03-02T09:53:34.972Z,18.00
2024-03-02T09:56:19.292Z,18.38
2024-03-02T09:59:02.036Z,16.10
2024-03-02T10:01:57.331Z,16.23
2024-03-02T10:04:40.296Z,15.77
2024-03-02T10:07:23.073Z,14.32
2024-03-02T10:10:14.785Z,18.48
2024-03-02T10:13:06.144Z,17.45
2024-03-02T10:15:48.929Z,15.05
2024-03-02T10:18:33.092Z,16.25
2024-03-02T10:21:16.317Z,14.98
2024-03-02T10:24:08.743Z,16.33
2024-03-02T10:26:51.870Z,17.52
2024-03-02T10:29:34.640Z,15.77
2024-03-02T10:32:17.845Z,16.38
2024-03-02T10:35:01.967Z,16.50
2024-03-02T10:37:44.718Z,15.35
2024-03-02T10:40:28.456Z,12.90
2024-03-02T10:43:12.089Z,17.40
2024-03-02T10:45:55.090Z,15.45
2024-03-02T10:48:38.908Z,15.05
2024-03-02T10:51:23.164Z,16.55
2024-03-02T10:54:07.336Z,16.17
2024-03-02T10:56:50.211Z,14.52
2024-03-02T10:59:35.147Z,15.77
2024-03-02T11:02:18.259Z,15.35
2024-03-02T11:05:02.312Z,13.43
2024-03-02T11:07:47.062Z,11.63
2024-03-02T11:10:30.184Z,14.23
2024-03-02T11:13:14.288Z,13.10
2024-03-02T11:15:57.979Z,14.23
2024-03-02T11:18:41.226Z,11.95
2024-03-02T11:21:24.042Z,12.95
2024-03-02T11:24:21.737Z,13.50
2024-03-02T11:27:12.383Z,12.82
2024-03-02T11:29:55.664Z,12.32
2024-03-02T11:32:38.441Z,12.90
2024-03-02T11:35:21.293Z,11.38
2024-03-02T11:38:04.454Z,12.15
2024-03-02T11:40:47.478Z,10.30
2024-03-02T11:43:31.749Z,12.90
2024-03-02T11:46:14.604Z,10.38
2024-03-02T11:48:57.353Z,12.45
2024-03-02T11:51:40.855Z,12.60
2024-03-02T11:54:23.750Z,12.43
2024-03-02T11:57:06.764Z,12.18
2024-03-02T11:59:51.916Z,13.27
2024-03-02T12:02:34.654Z,12.63
2024-03-02T12:05:17.888Z,16.35
2024-03-02T12:08:00.803Z,10.70
2024-03-02T12:10:44.761Z,11.65
2024-03-02T12:13:27.512Z,10.93
2024-03-02T12:16:11.637Z,14.45
2024-03-02T12:18:54.401Z,11.38
2024-03-02T12:21:38.449Z,10.68
2024-03-02T12:24:21.263Z,12.77
2024-03-02T12:27:04.092Z,12.90
2024-03-02T12:29:46.798Z,12.15
2024-03-02T12:32:31.256Z,11.77
2024-03-02T12:35:18.127Z,11.20
2024-03-02T12:38:01.198Z,10.57
2024-03-02T12:40:43.912Z,10.63
2024-03-02T12:43:26.738Z,11.32
2024-03-02T12:46:09.616Z,10.25
2024-03-02T12:48:53.787Z,13.55
2024-03-02T12:51:37.226Z,10.13
2024-03-02T12:54:20.131Z,11.63
2024-03-02T12:57:02.927Z,9.77
2024-03-02T12:59:48.774Z,13.80
2024-03-02T13:02:31.750Z,15.65
2024-03-02T13:05:15.916Z,12.25
2024-03-02T13:07:58.660Z,11.30
2024-03-02T13:10:42.336Z,11.98
2024-03-02T13:13:25.333Z,11.68
2024-03-02T13:16:10.123Z,10.38
2024-03-02T13:18:52.932Z,10.40
2024-03-02T13:21:37.245Z,13.15
2024-03-02T13:24:21.169Z,9.48
2024-03-02T13:27:05.203Z,11.02
2024-03-02T13:29:48.669Z,9.98
2024-03-02T13:32:31.596Z,10.43
2024-03-02T13:35:14.489Z,9.38
2024-03-02T13:37:58.617Z,11.13
2024-03-02T13:40:41.567Z,10.52
2024-03-02T13:43:24.949Z,8.90
2024-03-02T13:46:07.983Z,12.02
2024-03-02T13:48:52.568Z,8.82
2024-03-02T13:51:35.461Z,11.60
2024-03-02T13:54:20.381Z,10.68
2024-03-02T13:57:03.754Z,11.38
2024-03-02T13:59:47.400Z,10.40
2024-03-02T14:02:31.430Z,10.05
2024-03-02T14:05:15.052Z,9.30
2024-03-02T14:07:57.887Z,9.10
2024-03-02T14:10:43.038Z,9.52
2024-03-02T14:13:27.320Z,8.27
2024-03-02T14:16:10.557Z,9.85
2024-03-02T14:18:53.416Z,11.40
2024-03-02T14:21:36.901Z,10.05
2024-03-02T14:24:19.712Z,9.65
2024-03-02T14:27:10.740Z,9.32
2024-03-02T14:30:02.878Z,8.25
2024-03-02T14:32:45.646Z,11.50
2024-03-02T14:35:29.649Z,10.55
2024-03-02T14:38:12.443Z,11.25
2024-03-02T14:40:55.142Z,13.32
2024-03-02T14:43:39.408Z,10.63
2024-03-02T14:46:22.180Z,9.55
2024-03-02T14:49:05.035Z,10.75
2024-03-02T14:51:48.080Z,10.23
2024-03-02T14:54:30.914Z,11.70
2024-03-02T14:57:13.659Z,10.85
2024-03-02T14:59:57.742Z,10.13
2024-03-02T15:02:40.495Z,11.23
2024-03-02T15:05:23.309Z,10.20
2024-03-02T15:08:06.565Z,9.85
2024-03-02T15:10:49.330Z,11.10
2024-03-02T15:13:32.160Z,10.30
2024-03-02T15:16:16.566Z,9.63
2024-03-02T15:18:59.384Z,9.20
2024-03-02T15:21:42.186Z,7.68
2024-03-02T15:24:26.166Z,8.23
2024-03-02T15:27:09.682Z,11.25
2024-03-02T15:29:53.387Z,12.27
2024-03-02T15:32:39.732Z,11.05
2024-03-02T15:35:22.531Z,9.63
2024-03-02T15:38:09.505Z,10.45
2024-03-02T15:40:54.728Z,10.27
2024-03-02T15:43:40.364Z,11.60
2024-03-02T15:46:23.315Z,13.40
2024-03-02T15:49:09.188Z,10.38
2024-03-02T15:51:52.241Z,10.73
2024-03-02T15:54:35.102Z,11.38
2024-03-02T15:57:18.361Z,9.98
2024-03-02T16:00:01.327Z,10.13
2024-03-02T16:02:54.312Z,9.32
2024-03-02T16:05:38.445Z,10.80
2024-03-02T16:08:21.274Z,9.15
2024-03-02T16:11:04.983Z,9.40
2024-03-02T16:13:48.314Z,9.82
2024-03-02T16:16:31.029Z,13.50
2024-03-02T16:19:20.622Z,9.98
2024-03-02T16:22:12.321Z,11.10
2024-03-02T16:24:55.301Z,11.35
2024-03-02T16:27:38.141Z,9.00
2024-03-02T16:30:21.165Z,9.45
2024-03-02T16:33:04.020Z,8.60
2024-03-02T16:35:49.752Z,9.60
2024-03-02T16:38:33.851Z,10.98
2024-03-02T16:41:18.231Z,10.07
2024-03-02T16:44:00.924Z,9.02
2024-03-02T16:46:43.614Z,10.63
2024-03-02T16:49:26.289Z,10.18
2024-03-02T16:52:09.457Z,8.88
2024-03-02T16:54:53.592Z,12.13
2024-03-02T16:57:36.533Z,11.77
2024-03-02T17:00:19.526Z,11.52
2024-03-02T17:03:02.290Z,11.57
2024-03-02T17:05:45.016Z,9.57
2024-03-02T17:08:27.974Z,12.27
2024-03-02T17:11:12.052Z,10.85
2024-03-02T17:13:58.577Z,9.18
2024-03-02T17:16:41.501Z,10.63
2024-03-02T17:19:24.212Z,11.98
2024-03-02T17:22:07.041Z,11.65
2024-03-02T17:24:49.841Z,15.05
2024-03-02T17:27:34.017Z,12.95
2024-03-02T17:30:16.951Z,10.48
2024-03-02T17:32:59.856Z,9.38
2024-03-02T17:35:42.647Z,11.82
2024-03-02T17:38:25.402Z,11.30
2024-03-02T17:41:08.713Z,10.07
2024-03-02T17:43:53.076Z,12.43
2024-03-02T17:46:35.885Z,13.00
2024-03-02T17:49:20.776Z,11.73
2024-03-02T17:52:03.944Z,14.00
2024-03-02T17:54:46.716Z,12.93
2024-03-02T17:57:29.474Z,14.82
2024-03-02T18:00:15.344Z,12.90
2024-03-02T18:02:58.154Z,12.63
2024-03-02T18:05:40.869Z,13.70
2024-03-02T18:08:23.617Z,14.23
2024-03-02T18:11:07.714Z,15.10
2024-03-02T18:13:50.747Z,16.20
2024-03-02T18:16:35.184Z,16.85
2024-03-02T18:19:18.266Z,18.77
2024-03-02T18:22:01.519Z,15.77
2024-03-02T18:24:45.884Z,17.17
2024-03-02T18:27:29.582Z,20.08
2024-03-02T18:30:13.692Z,21.15
2024-03-02T18:32:57.811Z,17.42
2024-03-02T18:35:40.664Z,16.83
2024-03-02T18:38:23.719Z,15.60
2024-03-02T18:41:06.470Z,16.15
2024-03-02T18:43:49.303Z,15.48
2024-03-02T18:46:32.176Z,15.48
2024-03-02T18:49:16.415Z,19.38
2024-03-02T18:51:59.316Z,16.35
2024-03-02T18:54:42.689Z,16.33
2024-03-02T18:57:25.473Z,16.45
2024-03-02T19:00:13.545Z,15.10
2024-03-02T19:02:56.872Z,16.05
2024-03-02T19:05:40.886Z,17.05
2024-03-02T19:08:24.723Z,18.77
2024-03-02T19:11:07.654Z,16.20
2024-03-02T19:13:50.523Z,18.70
2024-03-02T19:16:34.400Z,18.33
2024-03-02T19:19:17.263Z,20.80
2024-03-02T19:22:05.595Z,15.32
2024-03-02T19:24:53.664Z,18.60
2024-03-02T19:27:36.547Z,16.95
2024-03-02T19:30:20.498Z,16.75
2024-03-02T19:33:03.745Z,18.73
2024-03-02T19:35:47.930Z,19.52
2024-03-02T19:38:34.771Z,17.77
2024-03-02T19:41:18.608Z,17.65
2024-03-02T19:44:04.554Z,17.80
2024-03-02T19:46:47.361Z,17.45
2024-03-02T19:49:30.233Z,19.23
2024-03-02T19:52:13.186Z,19.25
2024-03-02T19:54:57.912Z,16.13
2024-03-02T19:57:45.617Z,18.52
2024-03-02T20:00:28.546Z,19.55
2024-03-02T20:03:12.619Z,16.42
2024-03-02T20:05:55.413Z,16.65
2024-03-02T20:08:38.318Z,16.88
2024-03-02T20:11:24.712Z,21.17
2024-03-02T20:14:07.529Z,18.40
2024-03-02T20:16:50.246Z,18.65
2024-03-02T20:19:33.040Z,17.35
2024-03-02T20:22:18.480Z,20.13
2024-03-02T20:25:01.856Z,16.65
2024-03-02T20:27:46.568Z,17.40
2024-03-02T20:30:29.821Z,17.65
2024-03-02T20:33:13.139Z,17.73
2024-03-02T20:35:56.357Z,18.58
2024-03-02T20:38:40.625Z,23.48
2024-03-02T20:41:23.770Z,18.48
2024-03-02T20:44:08.162Z,17.42
2024-03-02T20:46:51.049Z,16.52
2024-03-02T20:49:33.983Z,18.45
2024-03-02T20:52:16.903Z,17.55
2024-03-02T20:54:59.898Z,16.23
2024-03-02T20:57:42.689Z,16.45
2024-03-02T21:00:26.971Z,14.73
2024-03-02T21:03:09.716Z,15.25
2024-03-02T21:05:52.556Z,15.85
2024-03-02T21:08:35.249Z,16.33
2024-03-02T21:11:19.453Z,18.50
2024-03-02T21:14:02.254Z,18.40
2024-03-02T21:16:46.335Z,20.95
2024-03-02T21:19:29.070Z,16.45
2024-03-02T21:22:11.873Z,15.13
2024-03-02T21:24:54.679Z,14.80
2024-03-02T21:27:37.729Z,15.00
2024-03-02T21:30:20.578Z,18.02
2024-03-02T21:33:05.269Z,14.82
2024-03-02T21:35:48.033Z,15.35
2024-03-02T21:38:31.192Z,18.83
2024-03-02T21:41:14.375Z,17.70
2024-03-02T21:43:57.135Z,16.55
2024-03-02T21:46:39.834Z,16.42
2024-03-02T21:49:24.270Z,15.15
2024-03-02T21:52:08.497Z,16.35
2024-03-02T21:54:51.413Z,14.70
2024-03-02T21:57:35.583Z,14.23
2024-03-02T22:00:19.646Z,14.60
2024-03-02T22:03:03.860Z,15.65
2024-03-02T22:05:47.986Z,16.10
2024-03-02T22:08:30.730Z,15.20
2024-03-02T22:11:13.871Z,15.50
2024-03-02T22:13:56.597Z,15.27
2024-03-02T22:16:39.311Z,16.20
2024-03-02T22:19:22.134Z,16.05
2024-03-02T22:22:07.081Z,15.90
2024-03-02T22:24:49.863Z,14.65
2024-03-02T22:27:34.199Z,13.77
2024-03-02T22:30:16.952Z,14.32
2024-03-02T22:32:59.740Z,16.08
2024-03-02T22:35:42.619Z,16.48
2024-03-02T22:38:26.678Z,14.80
2024-03-02T22:41:09.356Z,16.88
2024-03-02T22:43:52.179Z,16.15
2024-03-02T22:46:34.891Z,16.42
2024-03-02T22:49:17.633Z,16.52
2024-03-02T22:52:00.750Z,16.98
2024-03-02T22:54:44.836Z,14.10
2024-03-02T22:57:27.579Z,17.50
2024-03-02T23:00:22.585Z,14.77
2024-03-02T23:03:05.393Z,16.58
2024-03-02T23:05:48.202Z,14.65
2024-03-02T23:08:30.857Z,16.67
2024-03-02T23:11:15.009Z,17.23
2024-03-02T23:13:57.775Z,17.25
2024-03-02T23:16:45.227Z,14.45
2024-03-02T23:19:28.112Z,17.27
2024-03-02T23:22:11.486Z,15.55
2024-03-02T23:24:54.441Z,16.95
2024-03-02T23:27:38.618Z,19.02
2024-03-02T23:30:22.785Z,17.88
2024-03-02T23:33:05.790Z,19.17
2024-03-02T23:35:48.564Z,17.55
2024-03-02T23:38:31.261Z,17.42
2024-03-02T23:41:13.688Z,17.25
2024-03-02T23:43:58.935Z,17.08
2024-03-02T23:46:41.580Z,15.85
2024-03-02T23:49:24.327Z,17.55
2024-03-02T23:52:07.423Z,19.35
2024-03-02T23:54:50.229Z,17.33
2024-03-02T23:57:32.884Z,17.15
